createdAt,value
2022-09-29T00:01:08.598Z,5.10
2022-09-29T00:03:37.077Z,5.55
2022-09-29T00:06:03.972Z,5.15
2022-09-29T00:08:31.676Z,5.80
2022-09-29T00:10:59.503Z,4.97
2022-09-29T00:13:26.365Z,5.25
2022-09-29T00:16:01.061Z,5.07
2022-09-29T00:18:30.031Z,4.88
2022-09-29T00:21:10.849Z,5.78
2022-09-29T00:23:38.532Z,5.20
2022-09-29T00:26:20.790Z,5.82
2022-09-29T00:28:57.412Z,5.75
2022-09-29T00:31:28.141Z,6.00
2022-09-29T00:33:55.502Z,5.22
2022-09-29T00:36:24.060Z,5.43
2022-09-29T00:38:55.038Z,5.78
2022-09-29T00:41:25.135Z,5.55
2022-09-29T00:43:54.809Z,6.43
2022-09-29T00:46:32.800Z,6.03
2022-09-29T00:49:33.414Z,5.45
2022-09-29T00:52:06.578Z,5.80
2022-09-29T00:54:38.753Z,5.65
2022-09-29T00:57:08.256Z,5.68
2022-09-29T00:59:50.362Z,5.95
2022-09-29T01:02:19.981Z,5.63
2022-09-29T01:04:49.513Z,6.75
2022-09-29T01:07:16.356Z,5.75
2022-09-29T01:09:44.198Z,6.47
2022-09-29T01:12:11.041Z,6.22
2022-09-29T01:14:38.687Z,5.90
2022-09-29T01:17:06.120Z,5.72
2022-09-29T01:20:03.994Z,6.20
2022-09-29T01:22:37.416Z,6.00
2022-09-29T01:25:32.311Z,6.13
2022-09-29T01:28:05.666Z,5.90
2022-09-29T01:31:10.406Z,5.85
2022-09-29T01:34:11.077Z,5.20
2022-09-29T01:36:56.567Z,5.63
2022-09-29T01:39:33.744Z,6.00
2022-09-29T01:42:12.971Z,5.70
2022-09-29T01:44:43.560Z,6.38
2022-09-29T01:47:21.409Z,6.05
2022-09-29T01:50:16.677Z,6.38
2022-09-29T01:52:48.265Z,5.75
2022-09-29T01:55:21.535Z,6.18
2022-09-29T01:58:00.274Z,6.63
2022-09-29T02:00:31.914Z,6.25
2022-09-29T02:03:17.953Z,6.17
2022-09-29T02:05:55.045Z,6.38
2022-09-29T02:08:42.405Z,5.60
2022-09-29T02:11:13.351Z,6.13
2022-09-29T02:13:42.145Z,5.88
2022-09-29T02:16:13.534Z,6.43
2022-09-29T02:18:49.106Z,6.05
2022-09-29T02:21:18.649Z,5.32
2022-09-29T02:23:46.488Z,5.65
2022-09-29T02:26:16.053Z,5.65
2022-09-29T02:28:44.147Z,6.28
2022-09-29T02:31:12.795Z,6.20
2022-09-29T02:33:39.653Z,6.30
2022-09-29T02:36:34.236Z,6.38
2022-09-29T02:39:20.314Z,6.20
2022-09-29T02:42:06.189Z,6.90
2022-09-29T02:45:00.512Z,6.30
2022-09-29T02:47:53.309Z,6.25
2022-09-29T02:50:31.937Z,6.07
2022-09-29T02:53:44.480Z,5.75
2022-09-29T02:56:24.840Z,6.13
2022-09-29T02:59:01.449Z,6.22
2022-09-29T03:01:33.908Z,6.43
2022-09-29T03:04:04.438Z,6.25
2022-09-29T03:06:32.429Z,6.65
2022-09-29T03:09:00.260Z,6.32
2022-09-29T03:11:27.133Z,7.28
2022-09-29T03:13:54.249Z,6.22
2022-09-29T03:16:21.111Z,6.07
2022-09-29T03:18:47.911Z,6.53
2022-09-29T03:21:14.747Z,6.03
2022-09-29T03:23:41.542Z,5.90
2022-09-29T03:26:08.376Z,6.50
2022-09-29T03:28:35.457Z,6.25
2022-09-29T03:31:09.793Z,6.50
2022-09-29T03:33:38.588Z,6.20
2022-09-29T03:36:14.754Z,6.47
2022-09-29T03:38:41.600Z,6.15
2022-09-29T03:41:08.413Z,5.80
2022-09-29T03:43:36.159Z,7.97
2022-09-29T03:46:03.035Z,6.20
2022-09-29T03:48:31.409Z,5.93
2022-09-29T03:50:58.363Z,5.88
2022-09-29T03:53:25.162Z,5.68
2022-09-29T03:55:52.040Z,5.65
2022-09-29T03:58:19.814Z,5.47
2022-09-29T04:00:49.863Z,6.03
2022-09-29T04:03:17.106Z,5.43
2022-09-29T04:05:46.695Z,5.85
2022-09-29T04:08:14.131Z,5.70
2022-09-29T04:10:41.885Z,5.70
2022-09-29T04:13:09.437Z,5.55
2022-09-29T04:15:36.348Z,5.68
2022-09-29T04:18:03.230Z,5.93
2022-09-29T04:20:30.118Z,5.78
2022-09-29T04:22:56.944Z,6.18
2022-09-29T04:25:24.913Z,6.07
2022-09-29T04:27:51.767Z,7.82
2022-09-29T04:30:18.761Z,8.02
2022-09-29T04:32:45.714Z,7.10
2022-09-29T04:35:13.572Z,6.80
2022-09-29T04:37:40.466Z,6.60
2022-09-29T04:40:07.624Z,6.05
2022-09-29T04:42:35.415Z,6.32
2022-09-29T04:45:02.603Z,5.57
2022-09-29T04:47:30.887Z,5.65
2022-09-29T04:49:57.654Z,6.60
2022-09-29T04:52:24.412Z,6.57
2022-09-29T04:54:51.225Z,6.85
2022-09-29T04:57:18.109Z,6.07
2022-09-29T04:59:46.541Z,6.97
2022-09-29T05:02:13.417Z,6.80
2022-09-29T05:04:40.260Z,6.40
2022-09-29T05:07:07.047Z,6.90
2022-09-29T05:09:34.231Z,5.70
2022-09-29T05:12:01.591Z,6.80
2022-09-29T05:14:29.829Z,5.93
2022-09-29T05:16:57.620Z,6.47
2022-09-29T05:19:24.798Z,5.95
2022-09-29T05:21:51.625Z,5.93
2022-09-29T05:24:18.415Z,6.47
2022-09-29T05:26:46.219Z,6.40
2022-09-29T05:29:15.179Z,6.25
2022-09-29T05:31:42.067Z,6.57
2022-09-29T05:34:09.185Z,6.55
2022-09-29T05:36:36.194Z,6.30
2022-09-29T05:39:03.233Z,6.78
2022-09-29T05:41:30.185Z,6.00
2022-09-29T05:44:01.205Z,7.10
2022-09-29T05:46:28.252Z,6.43
2022-09-29T05:48:55.181Z,7.07
2022-09-29T05:51:24.160Z,6.75
2022-09-29T05:53:51.883Z,7.45
2022-09-29T05:56:24.453Z,7.55
2022-09-29T05:58:51.608Z,6.70
2022-09-29T06:01:24.880Z,6.50
2022-09-29T06:03:54.543Z,7.40
2022-09-29T06:06:24.157Z,6.60
2022-09-29T06:08:51.562Z,7.07
2022-09-29T06:11:24.192Z,6.97
2022-09-29T06:16:24.263Z,6.90
2022-09-29T06:18:51.775Z,6.97
2022-09-29T06:21:21.230Z,7.07
2022-09-29T06:23:48.145Z,6.72
2022-09-29T06:26:21.400Z,7.28
2022-09-29T06:28:50.360Z,6.97
2022-09-29T06:31:20.626Z,6.35
2022-09-29T06:33:47.612Z,6.57
2022-09-29T06:36:47.909Z,7.13
2022-09-29T06:39:15.712Z,6.57
2022-09-29T06:41:48.579Z,6.50
2022-09-29T06:44:15.999Z,7.15
2022-09-29T06:46:43.013Z,7.82
2022-09-29T06:49:13.467Z,10.27
2022-09-29T06:51:45.838Z,6.68
2022-09-29T06:54:21.649Z,8.57
2022-09-29T06:56:51.926Z,6.63
2022-09-29T06:59:18.943Z,6.78
2022-09-29T07:01:50.545Z,6.68
2022-09-29T07:04:21.304Z,6.50
2022-09-29T07:06:49.353Z,6.95
2022-09-29T07:09:16.374Z,7.25
2022-09-29T07:11:49.115Z,6.47
2022-09-29T07:14:19.064Z,7.53
2022-09-29T07:16:49.140Z,6.85
2022-09-29T07:19:18.439Z,7.70
2022-09-29T07:21:48.815Z,7.25
2022-09-29T07:24:16.193Z,7.47
2022-09-29T07:26:43.377Z,8.05
2022-09-29T07:29:15.546Z,6.82
2022-09-29T07:34:21.596Z,6.68
2022-09-29T07:36:49.263Z,8.02
2022-09-29T07:39:16.171Z,6.90
2022-09-29T07:41:44.007Z,7.97
2022-09-29T07:44:11.726Z,7.13
2022-09-29T07:46:48.121Z,7.82
2022-09-29T07:49:15.452Z,7.70
2022-09-29T07:51:42.456Z,8.05
2022-09-29T07:54:09.259Z,7.55
2022-09-29T07:56:38.124Z,7.35
2022-09-29T07:59:05.421Z,6.93
2022-09-29T08:01:33.124Z,7.90
2022-09-29T08:04:00.573Z,7.45
2022-09-29T08:06:28.042Z,8.05
2022-09-29T08:09:03.686Z,7.82
2022-09-29T08:11:38.471Z,7.82
2022-09-29T08:14:05.837Z,8.02
2022-09-29T08:16:34.630Z,7.28
2022-09-29T08:19:03.626Z,8.32
2022-09-29T08:21:32.105Z,7.55
2022-09-29T08:24:00.519Z,7.88
2022-09-29T08:26:40.577Z,7.22
2022-09-29T08:29:17.199Z,7.30
2022-09-29T08:31:45.721Z,7.60
2022-09-29T08:34:13.907Z,8.60
2022-09-29T08:36:41.149Z,7.85
2022-09-29T08:39:10.257Z,7.65
2022-09-29T08:42:01.319Z,7.55
2022-09-29T08:45:10.880Z,7.35
2022-09-29T08:47:55.515Z,7.18
2022-09-29T08:50:37.658Z,6.90
2022-09-29T08:53:23.747Z,7.20
2022-09-29T08:56:07.171Z,7.20
2022-09-29T08:58:34.555Z,6.95
2022-09-29T09:01:31.749Z,7.00
2022-09-29T09:04:30.384Z,6.13
2022-09-29T09:06:57.162Z,5.50
2022-09-29T09:09:42.111Z,5.93
2022-09-29T09:12:23.040Z,5.10
2022-09-29T09:15:23.605Z,5.10
2022-09-29T09:18:10.757Z,5.30
2022-09-29T09:21:02.780Z,5.40
2022-09-29T09:23:56.948Z,5.00
2022-09-29T09:26:34.170Z,4.53
2022-09-29T09:29:11.353Z,5.00
2022-09-29T09:31:51.463Z,4.68
2022-09-29T09:34:40.118Z,5.13
2022-09-29T09:37:37.309Z,4.95
2022-09-29T09:40:21.193Z,5.28
2022-09-29T09:43:03.337Z,4.47
2022-09-29T09:45:48.835Z,4.38
2022-09-29T09:48:23.413Z,4.15
2022-09-29T09:50:53.070Z,4.90
2022-09-29T09:53:34.450Z,5.05
2022-09-29T09:56:26.376Z,4.88
2022-09-29T09:59:06.965Z,5.22
2022-09-29T10:01:33.919Z,4.97
2022-09-29T10:04:01.905Z,4.28
2022-09-29T10:06:29.465Z,4.53
2022-09-29T10:08:56.383Z,5.10
2022-09-29T10:11:26.489Z,4.90
2022-09-29T10:14:19.949Z,4.60
2022-09-29T10:17:02.647Z,4.80
2022-09-29T10:25:09.066Z,2.85
2022-09-29T10:27:43.100Z,3.42
2022-09-29T10:30:33.583Z,3.45
2022-09-29T10:33:04.382Z,3.33
2022-09-29T10:35:38.142Z,3.35
2022-09-29T10:38:25.010Z,3.50
2022-09-29T10:41:02.182Z,3.15
2022-09-29T10:43:40.152Z,2.90
2022-09-29T10:46:29.704Z,2.92
2022-09-29T10:49:16.985Z,2.88
2022-09-29T10:51:51.254Z,3.08
2022-09-29T10:54:18.221Z,2.78
2022-09-29T10:56:49.473Z,2.28
2022-09-29T10:59:19.460Z,2.60
2022-09-29T11:01:53.963Z,3.42
2022-09-29T11:04:26.926Z,3.75
2022-09-29T11:06:55.209Z,2.47
2022-09-29T11:09:22.254Z,1.85
2022-09-29T11:11:49.370Z,2.13
2022-09-29T11:14:38.307Z,2.65
2022-09-29T11:17:26.623Z,1.85
2022-09-29T11:20:02.215Z,1.77
2022-09-29T11:22:39.817Z,1.92
2022-09-29T11:25:15.930Z,2.25
2022-09-29T11:28:24.460Z,2.20
2022-09-29T11:31:01.091Z,2.50
2022-09-29T11:33:44.615Z,2.70
2022-09-29T11:36:28.250Z,2.60
2022-09-29T11:39:17.717Z,2.42
2022-09-29T11:42:09.867Z,2.40
2022-09-29T11:44:58.337Z,2.17
2022-09-29T11:47:36.104Z,2.28
2022-09-29T11:50:21.505Z,1.90
2022-09-29T11:53:14.969Z,2.45
2022-09-29T11:56:01.956Z,2.15
2022-09-29T11:58:41.241Z,2.10
2022-09-29T12:01:21.498Z,1.60
2022-09-29T12:04:23.897Z,1.60
2022-09-29T12:07:05.540Z,1.20
2022-09-29T12:09:38.510Z,1.50
2022-09-29T12:12:24.616Z,1.60
2022-09-29T12:15:11.321Z,1.30
2022-09-29T12:17:45.681Z,1.58
2022-09-29T12:20:24.394Z,1.65
2022-09-29T12:22:54.644Z,1.40
2022-09-29T12:25:26.491Z,2.08
2022-09-29T12:28:06.975Z,1.70
2022-09-29T12:30:59.166Z,1.65
2022-09-29T12:33:39.729Z,1.65
2022-09-29T12:36:43.241Z,1.50
2022-09-29T12:39:36.553Z,1.70
2022-09-29T12:42:21.460Z,1.50
2022-09-29T12:45:01.618Z,2.10
2022-09-29T12:48:17.649Z,1.80
2022-09-29T12:51:31.962Z,2.28
2022-09-29T12:54:31.095Z,1.88
2022-09-29T12:57:06.589Z,1.70
2022-09-29T12:59:43.761Z,2.00
2022-09-29T13:02:23.033Z,2.00
2022-09-29T13:04:57.125Z,2.20
2022-09-29T13:07:23.959Z,2.10
2022-09-29T13:09:56.566Z,1.65
2022-09-29T13:12:23.376Z,1.42
2022-09-29T13:14:53.274Z,1.80
2022-09-29T13:20:31.489Z,1.90
2022-09-29T13:23:19.472Z,1.95
2022-09-29T13:25:54.570Z,1.90
2022-09-29T13:28:41.690Z,1.67
2022-09-29T13:31:15.381Z,1.90
2022-09-29T13:33:48.744Z,1.80
2022-09-29T13:36:27.828Z,1.20
2022-09-29T13:38:58.562Z,1.17
2022-09-29T13:41:31.832Z,1.38
2022-09-29T13:44:04.279Z,1.50
2022-09-29T13:49:21.111Z,1.40
2022-09-29T13:51:58.321Z,1.40
2022-09-29T13:54:40.160Z,1.35
2022-09-29T13:57:16.157Z,1.00
2022-09-29T13:59:55.746Z,1.45
2022-09-29T14:02:49.343Z,1.58
2022-09-29T14:05:25.838Z,1.20
2022-09-29T14:07:57.453Z,1.20
2022-09-29T14:10:36.705Z,1.40
2022-09-29T14:13:19.411Z,1.30
2022-09-29T14:16:16.314Z,1.40
2022-09-29T14:18:57.549Z,1.25
2022-09-29T14:21:49.250Z,1.30
2022-09-29T14:24:40.350Z,1.70
2022-09-29T14:27:54.264Z,1.00
2022-09-29T14:30:36.162Z,2.00
2022-09-29T14:33:14.360Z,1.40
2022-09-29T14:35:52.553Z,1.90
2022-09-29T14:38:34.051Z,2.13
2022-09-29T14:41:26.724Z,1.23
2022-09-29T14:43:57.922Z,1.40
2022-09-29T14:47:09.018Z,1.10
2022-09-29T14:49:56.711Z,1.40
2022-09-29T14:52:42.857Z,1.25
2022-09-29T14:55:30.928Z,1.92
2022-09-29T14:58:06.769Z,1.92
2022-09-29T15:01:12.505Z,1.60
2022-09-29T15:03:42.368Z,1.48
2022-09-29T15:06:22.699Z,1.70
2022-09-29T15:09:17.170Z,1.67
2022-09-29T15:11:58.133Z,17.13
2022-09-29T15:14:30.427Z,18.98
2022-09-29T15:17:39.600Z,6.00
2022-09-29T15:20:09.989Z,1.60
2022-09-29T15:23:13.779Z,1.70
2022-09-29T15:25:42.623Z,1.88
2022-09-29T15:28:14.675Z,1.83
2022-09-29T15:30:42.353Z,1.55
2022-09-29T15:33:25.675Z,1.55
2022-09-29T15:35:57.875Z,2.47
2022-09-29T15:38:24.653Z,2.20
2022-09-29T15:40:56.804Z,5.03
2022-09-29T15:43:29.089Z,4.35
2022-09-29T15:46:12.546Z,3.20
2022-09-29T15:48:39.567Z,5.20
2022-09-29T15:51:18.788Z,4.80
2022-09-29T15:53:46.535Z,2.70
2022-09-29T15:56:13.590Z,3.25
2022-09-29T15:58:45.273Z,3.10
2022-09-29T16:01:14.223Z,3.90
2022-09-29T16:03:46.875Z,3.90
2022-09-29T16:09:06.371Z,2.70
2022-09-29T16:11:36.115Z,3.50
2022-09-29T16:14:20.075Z,2.92
2022-09-29T16:16:49.818Z,3.05
2022-09-29T16:19:26.672Z,2.33
2022-09-29T16:22:06.564Z,3.15
2022-09-29T16:24:50.545Z,3.50
2022-09-29T16:27:42.856Z,3.20
2022-09-29T16:30:23.305Z,2.90
2022-09-29T16:32:57.723Z,3.10
2022-09-29T16:36:06.979Z,3.13
2022-09-29T16:38:39.864Z,3.25
2022-09-29T16:41:35.682Z,4.20
2022-09-29T16:44:11.943Z,4.30
2022-09-29T16:46:49.035Z,4.05
2022-09-29T16:49:34.619Z,3.83
2022-09-29T16:52:13.450Z,4.35
2022-09-29T16:54:44.705Z,9.40
2022-09-29T16:57:30.392Z,12.80
2022-09-29T17:00:05.052Z,10.32
2022-09-29T17:02:33.157Z,10.18
2022-09-29T17:05:05.005Z,8.95
2022-09-29T17:07:38.471Z,5.22
2022-09-29T17:10:07.434Z,3.60
2022-09-29T17:12:37.101Z,5.25
2022-09-29T17:15:04.671Z,3.80
2022-09-29T17:17:34.394Z,5.82
2022-09-29T17:20:06.921Z,11.65
2022-09-29T17:22:39.411Z,3.30
2022-09-29T17:25:07.539Z,4.17
2022-09-29T17:27:55.090Z,5.68
2022-09-29T17:30:24.911Z,6.55
2022-09-29T17:32:58.342Z,5.85
2022-09-29T17:35:31.949Z,5.72
2022-09-29T17:37:59.942Z,7.78
2022-09-29T17:40:46.678Z,14.25
2022-09-29T17:43:15.310Z,5.88
2022-09-29T17:45:44.404Z,10.75
2022-09-29T17:48:12.076Z,5.68
2022-09-29T17:50:46.153Z,13.07
2022-09-29T17:53:17.549Z,19.50
2022-09-29T17:55:47.737Z,33.50
2022-09-29T17:58:16.251Z,4.57
2022-09-29T18:00:49.172Z,11.82
2022-09-29T18:03:18.479Z,5.45
2022-09-29T18:05:48.513Z,7.90
2022-09-29T18:08:19.178Z,3.65
2022-09-29T18:10:52.453Z,5.20
2022-09-29T18:13:21.574Z,25.05
2022-09-29T18:15:49.074Z,5.78
2022-09-29T18:18:19.687Z,10.38
2022-09-29T18:20:47.122Z,26.63
2022-09-29T18:23:17.061Z,3.10
2022-09-29T18:25:48.231Z,2.50
2022-09-29T18:28:18.849Z,9.90
2022-09-29T18:30:49.955Z,3.95
2022-09-29T18:33:19.487Z,30.48
2022-09-29T18:35:53.018Z,7.80
2022-09-29T18:38:23.119Z,3.53
2022-09-29T18:40:55.772Z,29.27
2022-09-29T18:43:25.965Z,2.88
2022-09-29T18:45:55.663Z,2.20
2022-09-29T18:48:23.606Z,2.60
2022-09-29T18:50:53.440Z,4.05
2022-09-29T18:53:23.137Z,3.00
2022-09-29T18:55:55.954Z,3.42
2022-09-29T18:58:22.868Z,3.90
2022-09-29T19:00:55.528Z,4.63
2022-09-29T19:03:31.819Z,3.78
2022-09-29T19:06:01.532Z,3.95
2022-09-29T19:08:29.812Z,4.38
2022-09-29T19:10:58.404Z,4.78
2022-09-29T19:13:26.508Z,4.18
2022-09-29T19:15:59.001Z,4.43
2022-09-29T19:18:27.234Z,4.47
2022-09-29T19:21:02.096Z,4.82
2022-09-29T19:23:29.036Z,4.80
2022-09-29T19:25:58.587Z,4.20
2022-09-29T19:28:27.238Z,4.18
2022-09-29T19:30:55.941Z,4.20
2022-09-29T19:33:23.320Z,4.32
2022-09-29T19:35:54.525Z,4.70
2022-09-29T19:38:22.574Z,4.65
2022-09-29T19:40:51.477Z,5.20
2022-09-29T19:43:23.036Z,4.45
2022-09-29T19:45:50.922Z,4.30
2022-09-29T19:48:23.649Z,8.52
2022-09-29T19:51:17.158Z,5.10
2022-09-29T19:53:48.712Z,4.90
2022-09-29T19:58:45.723Z,5.03
2022-09-29T20:01:12.898Z,5.10
2022-09-29T20:03:40.245Z,5.00
2022-09-29T20:06:08.945Z,5.20
2022-09-29T20:08:36.722Z,5.85
2022-09-29T20:11:09.562Z,6.47
2022-09-29T20:13:37.386Z,6.20
2022-09-29T20:16:07.154Z,6.88
2022-09-29T20:18:37.638Z,6.38
2022-09-29T20:21:13.657Z,7.80
2022-09-29T20:23:41.586Z,7.10
2022-09-29T20:26:10.580Z,7.50
2022-09-29T20:28:40.133Z,7.45
2022-09-29T20:31:09.799Z,7.63
2022-09-29T20:33:39.283Z,7.53
2022-09-29T20:36:07.847Z,7.72
2022-09-29T20:38:45.005Z,7.88
2022-09-29T20:41:15.875Z,8.20
2022-09-29T20:43:47.020Z,7.38
2022-09-29T20:46:15.842Z,8.38
2022-09-29T20:48:46.167Z,7.82
2022-09-29T20:51:17.202Z,8.27
2022-09-29T20:53:54.427Z,8.15
2022-09-29T20:56:31.366Z,8.82
2022-09-29T20:59:07.055Z,9.85
2022-09-29T21:01:34.890Z,9.25
2022-09-29T21:04:15.121Z,9.10
2022-09-29T21:06:44.138Z,10.18
2022-09-29T21:09:14.304Z,10.57
2022-09-29T21:11:43.643Z,10.57
2022-09-29T21:14:19.398Z,10.88
2022-09-29T21:16:51.476Z,10.90
2022-09-29T21:19:21.710Z,10.63
2022-09-29T21:21:48.614Z,11.00
2022-09-29T21:24:16.527Z,10.85
2022-09-29T21:26:43.685Z,11.70
2022-09-29T21:29:17.786Z,10.38
2022-09-29T21:31:45.665Z,10.95
2022-09-29T21:34:13.892Z,10.43
2022-09-29T21:36:42.202Z,10.98
2022-09-29T21:39:14.892Z,11.48
2022-09-29T21:44:16.784Z,10.15
2022-09-29T21:49:12.744Z,12.35
2022-09-29T21:51:43.374Z,12.00
2022-09-29T21:54:16.461Z,12.25
2022-09-29T21:56:45.146Z,11.70
2022-09-29T21:59:14.636Z,12.02
2022-09-29T22:01:44.304Z,12.45
2022-09-29T22:04:11.304Z,12.40
2022-09-29T22:06:40.077Z,13.15
2022-09-29T22:09:12.000Z,12.35
2022-09-29T22:11:39.068Z,12.68
2022-09-29T22:14:10.889Z,12.93
2022-09-29T22:16:37.692Z,12.73
2022-09-29T22:19:22.591Z,12.35
2022-09-29T22:21:50.582Z,12.77
2022-09-29T22:24:17.463Z,12.75
2022-09-29T22:26:46.633Z,11.68
2022-09-29T22:29:13.415Z,13.15
2022-09-29T22:31:41.303Z,12.40
2022-09-29T22:34:10.951Z,12.02
2022-09-29T22:36:38.108Z,12.55
2022-09-29T22:39:06.318Z,12.68
2022-09-29T22:41:36.644Z,12.68
2022-09-29T22:44:04.218Z,12.60
2022-09-29T22:46:39.951Z,12.32
2022-09-29T22:49:06.793Z,13.13
2022-09-29T22:51:34.576Z,13.00
2022-09-29T22:54:02.436Z,12.25
2022-09-29T22:56:29.401Z,13.27
2022-09-29T22:59:01.156Z,13.38
2022-09-29T23:01:28.031Z,13.77
2022-09-29T23:03:55.006Z,12.68
2022-09-29T23:06:21.836Z,13.40
2022-09-29T23:08:49.076Z,13.73
2022-09-29T23:11:18.638Z,13.75
2022-09-29T23:13:47.330Z,14.18
2022-09-29T23:16:15.507Z,13.63
2022-09-29T23:18:45.826Z,13.57
2022-09-29T23:21:15.020Z,14.50
2022-09-29T23:23:41.982Z,14.30
2022-09-29T23:26:08.843Z,13.48
2022-09-29T23:28:36.084Z,14.43
2022-09-29T23:31:07.655Z,14.38
2022-09-29T23:33:34.879Z,14.38
2022-09-29T23:36:10.954Z,14.60
2022-09-29T23:39:01.488Z,14.52
2022-09-29T23:41:30.073Z,13.88
2022-09-29T23:44:00.158Z,14.65
2022-09-29T23:46:32.010Z,14.27
2022-09-29T23:49:02.591Z,14.48
2022-09-29T23:51:33.377Z,13.57
2022-09-29T23:54:00.544Z,14.55
2022-09-29T23:56:28.173Z,14.52
2022-09-29T23:58:55.367Z,14.52
